• Join FlightAware (Why Join?)
  • Login
  • US Flag 
01:52PM EDT


 

Airport Tracker/Info


-or-


 

Live Flight TrackerFlight Track Log ✈ EJA372 ✈ 17-May-2013 ✈ KCGF - TXKF / BDA

Flight Track Log - Related Links

Times and Time Zones

All times are in EDT time to prevent confusion due to time zone crossing. See the EJA372 flight status page for this flight to view local times or setup timezone preferences in your user account.

Time Position Orientation Groundspeed Altitude Reporting Facility
EDT Latitude Longitude Course Direction KTS MPH feet Rate Location/Type
03:40PM 41.5686 -81.4794 49° Northeast 148 170 1,300  Level Cleveland Center
03:40PM 41.5792 -81.4631 49° Northeast 156 180 2,000 1,800 Climbing Cleveland Center
03:41PM 41.5589 -81.3933 111° Southeast 274 315 3,900 2,040 Climbing Cleveland Center
03:42PM 41.5008 -81.3706 164° South 274 315 5,700 2,820 Climbing Cleveland Center
03:43PM 41.4300 -81.3475 166° South 311 358 9,000 2,100 Climbing Cleveland Center
03:44PM 41.3386 -81.3161 166° South 339 390 10,000 1,020 Climbing Cleveland Center
03:45PM 41.2428 -81.2681 159° South 357 411 11,100 2,100 Climbing Cleveland Center
03:46PM 41.1725 -81.1844 138° Southeast 351 404 14,200 2,760 Climbing Cleveland Center
03:47PM 41.1253 -81.0572 116° Southeast 351 404 16,700 2,220 Climbing Cleveland Center
03:48PM 41.0819 -80.9247 113° Southeast 368 423 18,700 1,980 Climbing Cleveland Center
03:49PM 41.0322 -80.7894 116° Southeast 387 445 20,700 1,980 Climbing Cleveland Center
03:50PM 40.9822 -80.6492 115° Southeast 406 467 22,700 1,860 Climbing Cleveland Center
03:52PM 40.8778 -80.3525 115° Southeast 434 499 26,300 1,800 Climbing Cleveland Center
03:53PM 40.8169 -80.1908 116° Southeast 439 505 28,100 1,680 Climbing Cleveland Center
03:54PM 40.7808 -80.0292 106° East 447 514 29,700 1,500 Climbing Cleveland Center
03:55PM 40.7508 -79.8786 105° East 458 527 31,100 1,500 Climbing Cleveland Center
03:56PM 40.6978 -79.7258 115° Southeast 458 527 32,700 1,440 Climbing Cleveland Center
03:57PM 40.6381 -79.5789 118° Southeast 458 527 34,000 600 Climbing Cleveland Center
03:58PM 40.5742 -79.4269 119° Southeast 458 527 34,000  Level Cleveland Center
03:59PM 40.4992 -79.2533 120° Southeast 479 551 34,000 120 Level Cleveland Center
04:00PM 40.4392 -79.1100 119° Southeast 493 567 34,300 360 Climbing Cleveland Center
04:01PM 40.3828 -78.9422 114° Southeast 493 567 34,800 480 Climbing Cleveland Center
04:02PM 40.3342 -78.7719 110° East 498 573 35,300 480 Climbing Cleveland Center
04:03PM 40.2833 -78.6017 111° Southeast 498 573 35,800 600 Climbing Cleveland Center
04:04PM 40.2367 -78.4344 110° East 493 567 36,500 360 Climbing Cleveland Center
04:06PM 40.1400 -78.1056 111° Southeast 505 581 37,000 120 Climbing New York Center
04:07PM 40.0919 -77.9375 110° East 505 581 37,000  Level New York Center
04:08PM 40.0339 -77.7553 113° Southeast 500 575 37,000  Level New York Center
04:09PM 39.9853 -77.5878 111° Southeast 500 575 37,000  Level New York Center
04:10PM 39.9325 -77.4175 112° Southeast 495 570 37,000  Level New York Center
04:11PM 39.8833 -77.2531 111° Southeast 495 570 37,000  Level New York Center
04:13PM 39.7792 -76.9225 112° Southeast 491 565 37,000  Level Washington Center
04:14PM 39.7267 -76.7569 112° Southeast 491 565 37,000  Level Washington Center
04:15PM 39.6742 -76.5917 112° Southeast 496 571 37,000  Level Washington Center
04:16PM 39.6275 -76.4322 111° Southeast 490 564 37,000  Level Washington Center
04:17PM 39.5764 -76.2700 112° Southeast 484 557 37,000  Level Washington Center
04:18PM 39.5208 -76.1028 113° Southeast 490 564 37,000  Level Washington Center
04:19PM 39.4694 -75.9383 112° Southeast 490 564 37,000  Level Washington Center
04:20PM 39.4156 -75.7717 113° Southeast 501 577 37,000  Level Washington Center
04:21PM 39.3636 -75.6103 113° Southeast 496 571 37,000  Level Washington Center
04:22PM 39.3114 -75.4575 114° Southeast 503 579 37,000  Level Washington Center
04:23PM 39.2589 -75.2942 113° Southeast 503 579 37,000  Level Washington Center
04:24PM 39.2042 -75.1308 113° Southeast 497 572 37,000  Level Washington Center
04:25PM 39.1492 -74.9653 113° Southeast 502 578 37,000  Level Washington Center
04:26PM 39.0942 -74.8053 114° Southeast 496 571 37,000  Level Washington Center
04:27PM 39.0200 -74.6511 122° Southeast 496 571 37,000  Level Washington Center
04:29PM 38.8375 -74.2839 122° Southeast 513 590 37,000  Level New York Center
04:30PM 38.7647 -74.1364 122° Southeast 507 583 37,000  Level New York Center
04:31PM 38.6897 -73.9814 122° Southeast 507 583 37,000  Level New York Center
04:32PM 38.6125 -73.8344 124° Southeast 507 583 37,000  Level New York Center
04:33PM 38.5369 -73.6797 122° Southeast 507 583 37,000 -540 Level New York Center
04:34PM 38.4614 -73.5336 123° Southeast 507 583 36,000 -1,020 Descending New York Center
04:35PM 38.3856 -73.3875 123° Southeast 497 572 35,000 -960 Descending New York Center
04:36PM 38.3094 -73.2392 123° Southeast 497 572 34,100 -960 Descending New York Center
04:37PM 38.2356 -73.0808 121° Southeast 503 579 33,100 -1,020 Descending New York Center
04:38PM 38.1550 -72.9356 125° Southeast 508 585 32,100 -1,020 Descending New York Center
04:39PM 38.0806 -72.7828 122° Southeast 508 585 31,100 -600 Descending New York Center
04:40PM 38.0122 -72.6308 120° Southeast 501 577 31,000 -60 Descending New York Center
04:41PM 37.9436 -72.4761 119° Southeast 501 577 31,000  Level New York Center
04:42PM 37.8728 -72.3194 120° Southeast 508 585 31,000  Level New York Center
04:43PM 37.8039 -72.1681 120° Southeast 508 585 31,000  Level New York Center
04:44PM 37.7347 -72.0144 120° Southeast 508 585 31,000  Level New York Center
04:45PM 37.6633 -71.8636 121° Southeast 508 585 31,000  Level New York Center
04:46PM 37.5981 -71.6922 116° Southeast 496 571 31,000  Level New York Center
04:47PM 37.5239 -71.5578 125° Southeast 504 580 31,000  Level New York Center
04:48PM 37.4500 -71.4078 122° Southeast 560 644 31,000  Level New York Center
04:49PM 37.3631 -71.2736 129° Southeast 499 574 31,000  Level New York Center
04:49PM 37.4833 -71.4500 129° Southeast 502 578 31,000  Level New York Oceanic (ODAPS)
04:50PM 37.2739 -71.1400 129° Southeast 499 574 31,000  Level New York Center
04:52PM 37.1780 -70.9831 129° Southeast  Level FlightAware Approximate
04:59PM 36.6263 -70.1516 129° Southeast  Level FlightAware Approximate
05:00PM 36.5470 -70.0338 130° Southeast  Level FlightAware Approximate
05:01PM 36.4676 -69.9163 130° Southeast  Level FlightAware Approximate
05:02PM 36.3881 -69.7989 130° Southeast  Level FlightAware Approximate
05:03PM 36.3085 -69.6818 130° Southeast  Level FlightAware Approximate
05:04PM 36.2287 -69.5650 130° Southeast  Level FlightAware Approximate
05:04PM 36.1667 -69.4500 143° Southeast 507 583 31,000  Level New York Oceanic (ODAPS)
05:05PM 36.1486 -69.4487 142° Southeast  Level FlightAware Approximate
05:06PM 36.0515 -69.3545 142° Southeast  Level FlightAware Approximate
05:07PM 35.9542 -69.2605 142° Southeast  Level FlightAware Approximate
05:08PM 35.8569 -69.1668 142° Southeast  Level FlightAware Approximate
05:09PM 35.7595 -69.0733 142° Southeast  Level FlightAware Approximate
05:10PM 35.3793 -68.7129 143° Southeast 507 583 31,000  Level FlightAware Transoceanic
05:11PM 35.2665 -68.6088 143° Southeast 507 583 31,000  Level FlightAware Transoceanic
05:12PM 35.1536 -68.5050 143° Southeast 507 583 31,000  Level FlightAware Transoceanic
05:13PM 35.0406 -68.4015 143° Southeast 507 583 31,000  Level FlightAware Transoceanic
05:14PM 34.9275 -68.2982 143° Southeast 507 583 31,000  Level FlightAware Transoceanic
05:15PM 34.8143 -68.1953 143° Southeast 507 583 31,000  Level FlightAware Transoceanic
05:16PM 34.7010 -68.0926 143° Southeast 507 583 31,000  Level FlightAware Transoceanic
05:17PM 34.5876 -67.9902 143° Southeast 507 583 31,000  Level FlightAware Transoceanic
05:18PM 34.4742 -67.8880 143° Southeast 507 583 31,000  Level FlightAware Transoceanic
05:19PM 34.3606 -67.7862 144° Southeast 507 583 31,000  Level FlightAware Transoceanic
05:20PM 34.2470 -67.6846 144° Southeast 507 583 31,000  Level FlightAware Transoceanic
05:21PM 34.1333 -67.5833 125° Southeast 507 583 31,000  Level FlightAware Transoceanic
05:21PM 34.1333 -67.5833 125° Southeast 487 560 31,000  Level New York Oceanic (ODAPS)
05:22PM 34.0545 -67.4489 125° Southeast 507 583 31,000  Level FlightAware Transoceanic
05:23PM 33.9756 -67.3148 125° Southeast 507 583 31,000  Level FlightAware Transoceanic
05:24PM 33.8964 -67.1809 125° Southeast 507 583 31,000  Level FlightAware Transoceanic
05:25PM 33.8172 -67.0473 126° Southeast 507 583 31,000  Level FlightAware Transoceanic
05:26PM 33.7378 -66.9139 126° Southeast 507 583 31,000  Level FlightAware Transoceanic
05:27PM 33.6582 -66.7807 126° Southeast 507 583 31,000  Level FlightAware Transoceanic
05:28PM 33.5786 -66.6478 126° Southeast 487 560 31,000  Level FlightAware Transoceanic
05:29PM 33.4987 -66.5152 126° Southeast 487 560 31,000  Level FlightAware Transoceanic
05:30PM 33.4188 -66.3828 126° Southeast 487 560 31,000  Level FlightAware Transoceanic
05:31PM 33.3387 -66.2506 126° Southeast 487 560 31,000  Level FlightAware Transoceanic
05:32PM 33.2584 -66.1187 126° Southeast 487 560 31,000  Level FlightAware Transoceanic
05:33PM 33.1780 -65.9870 126° Southeast 487 560 31,000 -5,640 Level FlightAware Transoceanic
05:33PM 33.3833 -66.3167 126° Southeast 500 575 25,000  Descending New York Oceanic (ODAPS)
05:34PM 33.0975 -65.8556 126° Southeast 487 560 31,000 3,060 Climbing FlightAware Transoceanic
05:35PM 33.0168 -65.7243 126° Southeast 487 560 31,000  Level FlightAware Transoceanic
05:36PM 32.9360 -65.5934 126° Southeast 487 560 31,000 -3,300 Level FlightAware Transoceanic
05:36PM 33.0167 -65.7333 126° Southeast 484 557 25,000  Descending New York Oceanic (ODAPS)
05:37PM 32.8551 -65.4627 126° Southeast 487 560 31,000 5,100 Climbing FlightAware Transoceanic
05:38PM 32.7740 -65.3322 127° Southeast 487 560 31,000 -9,540 Level FlightAware Transoceanic
05:38PM 33.0167 -65.7333 126° Southeast 484 557 18,000 -6,000 Descending New York Oceanic (ODAPS)
05:39PM 32.7079 -65.2236 127° Southeast 500 575 25,000 4,260 Climbing FlightAware Transoceanic
05:40PM 32.6228 -65.0882 127° Southeast 500 575 25,000  Level FlightAware Transoceanic
05:41PM 32.5376 -64.9530 127° Southeast 500 575 25,000 -6,180 Level FlightAware Transoceanic
05:41PM 32.7167 -65.2500 126° Southeast 514 592 13,800  Descending New York Oceanic (ODAPS)
05:42PM 32.4522 -64.8180 127° Southeast 500 575 25,000 -780 Climbing FlightAware Transoceanic
05:43PM 32.6345 -65.1184 128° Southeast  Level FlightAware Approximate
05:44PM 32.6754 -65.1796 128° Southeast  Level FlightAware Approximate
05:44PM 32.7167 -65.2500 126° Southeast 514 592 12,000  Level New York Oceanic (ODAPS)
05:45PM 32.5988 -65.0647 125° Southeast  Level FlightAware Approximate
05:45PM 32.7167 -65.2500 126° Southeast 514 592 11,000  Level New York Oceanic (ODAPS)
05:46PM 32.5273 -64.9454 125° Southeast  Level FlightAware Approximate
05:46PM 32.7167 -65.2500 126° Southeast 110 127 11,000  Level New York Oceanic (ODAPS)
05:47PM 32.4499 -64.8332 125° Southeast  Level FlightAware Approximate
05:48PM 32.3640 -64.6787 90° East  Level Estimated
05:48PM 32.7167 -65.2500 126° Southeast 110 127 8,000  Level New York Oceanic (ODAPS)
05:49PM 32.3640 -64.6787 90° East  Level Estimated
05:50PM 32.3640 -64.6787 90° East  Level Estimated
05:51PM 32.3640 -64.6787 90° East  Level Estimated
05:52PM 32.3640 -64.6787 90° East  Level Estimated
05:53PM 32.3640 -64.6787 90° East  Level Estimated
05:54PM 32.3640 -64.6787 90° East  Level Estimated
05:55PM 32.3640 -64.6787 90° East  Level Estimated
05:56PM 32.3640 -64.6787 90° East  Level Estimated
05:57PM 32.3640 -64.6787 90° East  Level Estimated
05:58PM 32.3640 -64.6787 90° East  Level Estimated
05:59PM 32.3640 -64.6787 90° East  Level Estimated